Troy, NY

4:46 AM EDT on October 31, 2014 (GMT -0400)
Brunswick, NY | Change Station
CLOSE
Current Station
Personal Weather Station
Location: Troy, NY
Elevation: 853 ft
Nearby Weather Stations

Elev 853 ft 42.77 °N, 73.58 °W | Updated 1 minute ago

Clear
Clear
36.7 °F
Feels Like 37 °F
N
3.0
Wind Variable Wind from WNW
Gusts 4.0 mph

Today
High -- | Low -- °F
--% Chance of Precip.
Yesterday
High -- | Low -- °F
Precip. -- in
7:27 AM 5:48 PM
First Quarter, 53% visible
Pressure 30.05 in
Visibility 10.0 miles
Clouds Few 4700 ft
Windchill 37 °F
Dew Point 34 °F
Humidity 90%
Rainfall 0.00 in
Snow Depth Not available.
UV 0 out of 12
Pollen .60 out of 12
Air Quality Not available.
Flu Activity Not available.
METAR KALB 310751Z 00000KT 10SM FEW047 01/M01 A3004 RMK AO2 SLP175 T00061011

More Conditions Fewer Conditions

Pressure 30.05 in
Visibility 10.0 miles
Clouds Few 4700 ft
Windchill 37 °F
Dew Point 34 °F
Humidity 90%
Rainfall 0.00 in
Snow Depth Not available.
UV 0 out of 12
Pollen .60 out of 12
Air Quality Not available.
Flu Activity Not available.
METAR KALB 310751Z 00000KT 10SM FEW047 01/M01 A3004 RMK AO2 SLP175 T00061011

More Conditions Fewer Conditions

10-Day Weather Forecast

Almanac

Astronomy

Oct. 31, 2014 Rise Set
Actual Time
Civil Twilight
Nautical Twilight
Astronomical Twilight
Moon
Length of Visible Light
Length of Day
Tomorrow will be .
, % of the Moon is Illuminated

Today's Extremes

State Highs State Lows

Community

WunderPhotos

Upload Photos

1,766,573 photos uploaded!

WunderBlogs® & News

Nearby

Air Quality

  Air Quality AQ Index Pollutant
Not available.

Snow Depth

Station Depth Elevation

Earthquake Activity

City Distance Mag. Time & Date
Minimum magnitude displayed is 2.5.

Coastal Water Temperatures

Place Temperature

Nearby Weather Stations